Time;durP1;ratioP1;P1;durP2;ratioP2;P2;SDS_P1;SDS_P2;PMS_P1;PMS_P2;Temp;Humidity;BMP_temperature;BMP_pressure;BME280_temperature;BME280_humidity;BME280_pressure;Samples;Min_cycle;Max_cycle;Signal;HPM_P1;HPM_P2
2023/04/01 00:01:01;;;;;;;0.40;0.30;;;;;;;12.50;59.53;94696.84;5132319;27;20443;-56
2023/04/01 00:03:30;;;;;;;0.40;0.30;;;;;;;12.62;59.30;94689.16;5133052;27;20473;-56
2023/04/01 00:06:00;;;;;;;0.40;0.30;;;;;;;12.40;60.45;94693.59;5132228;27;20468;-56
2023/04/01 00:08:29;;;;;;;0.30;0.30;;;;;;;12.37;60.35;94684.34;5132899;27;20435;-56
2023/04/01 00:10:59;;;;;;;0.40;0.30;;;;;;;12.37;60.19;94664.97;5132523;27;20427;-56
2023/04/01 00:13:28;;;;;;;0.37;0.27;;;;;;;12.37;60.65;94678.25;5133205;27;20867;-56
2023/04/01 00:15:57;;;;;;;0.30;0.30;;;;;;;12.37;60.17;94676.38;5132336;27;20467;-56
2023/04/01 00:18:27;;;;;;;0.40;0.30;;;;;;;12.54;60.23;94681.09;5132550;27;20445;-56
2023/04/01 00:20:55;;;;;;;1.73;0.50;;;;;;;12.52;60.07;94665.44;5132078;27;20452;-56
2023/04/01 00:23:23;;;;;;;0.30;0.20;;;;;;;12.68;59.78;94669.38;5132278;27;20487;-56
2023/04/01 00:25:52;;;;;;;0.40;0.40;;;;;;;12.71;59.46;94678.63;5132066;27;20445;-56
2023/04/01 00:28:22;;;;;;;0.30;0.20;;;;;;;12.50;59.90;94653.53;5131825;27;20526;-56
2023/04/01 00:30:50;;;;;;;0.30;0.20;;;;;;;12.33;61.16;94686.03;5132078;28;20549;-56
2023/04/01 00:33:18;;;;;;;0.30;0.20;;;;;;;12.41;60.99;94676.56;5132154;28;20431;-56
2023/04/01 00:35:47;;;;;;;0.30;0.30;;;;;;;12.30;61.76;94688.47;5132705;28;20526;-56
2023/04/01 00:38:16;;;;;;;0.47;0.43;;;;;;;12.43;61.17;94669.88;5132616;28;20512;-56
2023/04/01 00:40:46;;;;;;;0.50;0.50;;;;;;;12.00;62.83;94664.06;5132514;27;20518;-56
2023/04/01 00:43:19;;;;;;;0.30;0.20;;;;;;;12.12;62.60;94686.72;5131788;28;20427;-56
2023/04/01 00:45:49;;;;;;;0.30;0.20;;;;;;;12.40;61.58;94681.09;5132451;28;20453;-56
2023/04/01 00:48:20;;;;;;;0.30;0.20;;;;;;;12.30;61.81;94670.66;5132329;28;20465;-56
2023/04/01 00:50:52;;;;;;;0.40;0.30;;;;;;;12.50;60.95;94674.78;5131802;28;20439;-56
2023/04/01 00:53:22;;;;;;;0.33;0.27;;;;;;;12.23;61.77;94678.25;5104860;28;20931;-57
2023/04/01 00:55:55;;;;;;;0.40;0.30;;;;;;;11.50;62.61;94617.13;5131601;28;20522;-56
2023/04/01 00:58:27;;;;;;;0.30;0.30;;;;;;;11.82;64.25;94677.38;5132373;27;20443;-57
2023/04/01 01:00:59;;;;;;;0.50;0.40;;;;;;;11.58;62.92;94605.06;5132021;27;21060;-57
2023/04/01 01:03:28;;;;;;;0.40;0.30;;;;;;;12.15;62.87;94673.59;5132109;28;21015;-57
2023/04/01 01:06:25;;;;;;;0.33;0.30;;;;;;;12.17;63.17;94670.69;5132321;28;20455;-57
2023/04/01 01:09:07;;;;;;;0.30;0.20;;;;;;;12.06;64.14;94662.09;5128662;27;20475;-57
2023/04/01 01:11:41;;;;;;;0.40;0.30;;;;;;;12.25;63.16;94660.13;5132373;28;20526;-57
2023/04/01 01:14:27;;;;;;;0.70;0.70;;;;;;;12.25;62.83;94646.84;5132041;28;20434;-57
2023/04/01 01:17:11;;;;;;;0.77;0.77;;;;;;;11.53;64.67;94611.25;5132153;27;20961;-57
2023/04/01 01:19:54;;;;;;;0.80;0.80;;;;;;;11.65;65.49;94653.25;5136121;27;20517;-57
2023/04/01 01:22:49;;;;;;;0.50;0.47;;;;;;;11.79;64.86;94638.19;5136168;27;20443;-56
2023/04/01 01:25:33;;;;;;;0.50;0.50;;;;;;;11.78;65.00;94632.06;5135820;27;20489;-57
2023/04/01 01:28:20;;;;;;;0.43;0.43;;;;;;;12.04;64.15;94643.03;5136046;27;21018;-57
2023/04/01 01:30:58;;;;;;;0.40;0.30;;;;;;;12.08;63.58;94641.34;5135796;27;21015;-56
2023/04/01 01:33:44;;;;;;;0.40;0.30;;;;;;;11.36;65.49;94582.59;5135339;27;20504;-57
2023/04/01 01:36:16;;;;;;;0.30;0.20;;;;;;;11.71;65.68;94647.59;5135350;27;20431;-57
2023/04/01 01:38:47;;;;;;;0.50;0.50;;;;;;;11.48;67.12;94628.03;5109537;27;20521;-56
2023/04/01 01:41:19;;;;;;;0.30;0.20;;;;;;;11.93;64.60;94644.28;5135482;27;20435;-57
2023/04/01 01:43:51;;;;;;;0.60;0.40;;;;;;;11.02;66.44;94574.16;5135856;27;20503;-56
2023/04/01 01:46:23;;;;;;;0.30;0.30;;;;;;;11.41;67.19;94632.13;5133893;27;20530;-57
2023/04/01 01:48:53;;;;;;;0.60;0.30;;;;;;;11.21;67.29;94622.63;5135656;27;20427;-56
2023/04/01 01:51:24;;;;;;;0.30;0.20;;;;;;;11.57;66.34;94630.81;5135625;27;20838;-57
2023/04/01 01:53:53;;;;;;;0.40;0.30;;;;;;;11.27;67.54;94621.50;5135124;27;20525;-56
2023/04/01 01:56:24;;;;;;;0.30;0.20;;;;;;;11.51;66.82;94605.44;5135462;27;20470;-57
2023/04/01 01:58:55;;;;;;;0.30;0.30;;;;;;;11.83;65.91;94628.53;5135298;27;20435;-57
2023/04/01 02:01:27;;;;;;;0.50;0.50;;;;;;;11.77;65.67;94627.81;5135715;27;20449;-57
2023/04/01 02:03:57;;;;;;;0.60;0.30;;;;;;;11.59;66.74;94623.34;5135205;27;20438;-57
2023/04/01 02:06:30;;;;;;;1.07;1.07;;;;;;;11.03;69.29;94634.06;5135113;27;20525;-57
2023/04/01 02:09:02;;;;;;;4.83;1.07;;;;;;;10.95;71.42;94618.03;5135023;27;21039;-57
2023/04/01 02:11:35;;;;;;;0.37;0.20;;;;;;;11.41;69.20;94626.81;5135266;27;20474;-57
2023/04/01 02:14:08;;;;;;;0.50;0.30;;;;;;;11.02;70.39;94613.94;5134596;27;20470;-56
2023/04/01 02:16:45;;;;;;;0.30;0.20;;;;;;;11.11;69.59;94598.13;5135502;27;20788;-57
2023/04/01 02:19:22;;;;;;;0.30;0.20;;;;;;;11.27;69.59;94626.81;5128334;27;20423;-57
2023/04/01 02:21:56;;;;;;;0.30;0.20;;;;;;;11.47;67.48;94610.53;5129019;27;20508;-56
2023/04/01 02:24:27;;;;;;;0.30;0.20;;;;;;;11.20;68.64;94605.16;5134644;27;20522;-56
2023/04/01 02:26:56;;;;;;;0.30;0.20;;;;;;;11.55;68.79;94632.19;5120794;27;20431;-57
2023/04/01 02:29:26;;;;;;;0.70;0.57;;;;;;;11.56;69.64;94620.50;5134560;27;20866;-57
2023/04/01 02:31:55;;;;;;;0.63;0.63;;;;;;;10.83;68.56;94521.16;5134744;27;20522;-57
2023/04/01 02:34:25;;;;;;;0.40;0.40;;;;;;;11.24;67.86;94560.25;5135014;27;20510;-56
2023/04/01 02:36:57;;;;;;;0.40;0.30;;;;;;;11.29;67.77;94550.38;5134447;27;20480;-56
2023/04/01 02:39:26;;;;;;;0.30;0.20;;;;;;;11.78;67.33;94604.72;5134344;27;20551;-56
2023/04/01 02:41:54;;;;;;;0.67;0.67;;;;;;;11.21;68.90;94606.72;5125202;27;20461;-56
2023/04/01 02:44:23;;;;;;;0.40;0.30;;;;;;;11.10;71.20;94602.69;5134253;27;20513;-56
2023/04/01 02:46:52;;;;;;;0.30;0.20;;;;;;;11.19;70.10;94587.66;5134639;27;20499;-56
2023/04/01 02:49:21;;;;;;;0.50;0.50;;;;;;;10.95;71.19;94588.88;5134170;27;20994;-56
2023/04/01 02:51:49;;;;;;;0.40;0.30;;;;;;;11.01;71.61;94587.69;5134036;27;20439;-56
2023/04/01 02:54:19;;;;;;;0.30;0.30;;;;;;;11.17;71.84;94581.09;5134171;27;20889;-56
2023/04/01 02:56:47;;;;;;;0.30;0.20;;;;;;;11.44;69.24;94571.31;5133654;27;20435;-57
2023/04/01 02:59:16;;;;;;;0.60;0.40;;;;;;;11.47;69.18;94570.75;5134302;27;20863;-57
2023/04/01 03:01:44;;;;;;;0.30;0.20;;;;;;;11.14;69.98;94545.31;5134049;27;20442;-57
2023/04/01 03:04:12;;;;;;;0.40;0.30;;;;;;;11.79;67.06;94563.84;5133838;27;20440;-57
2023/04/01 03:06:41;;;;;;;0.50;0.40;;;;;;;11.78;67.80;94571.00;5133988;27;20913;-57
2023/04/01 03:09:09;;;;;;;0.30;0.20;;;;;;;12.07;66.42;94568.84;5133518;27;20533;-57
2023/04/01 03:11:40;;;;;;;0.30;0.20;;;;;;;11.44;68.09;94568.66;5134023;27;20441;-57
2023/04/01 03:14:08;;;;;;;0.30;0.20;;;;;;;11.53;68.88;94576.75;5133817;27;20430;-57
2023/04/01 03:16:37;;;;;;;0.40;0.30;;;;;;;11.68;68.21;94576.50;5133885;27;20514;-57
2023/04/01 03:19:05;;;;;;;0.50;0.40;;;;;;;11.91;67.01;94566.78;5132990;27;20431;-57
2023/04/01 03:21:34;;;;;;;0.33;0.30;;;;;;;11.98;66.45;94549.38;5133900;27;20518;-57
2023/04/01 03:24:02;;;;;;;0.40;0.30;;;;;;;12.07;65.65;94565.38;5132595;27;20476;-57
2023/04/01 03:26:30;;;;;;;0.30;0.20;;;;;;;12.13;65.60;94572.19;5132862;27;20470;-57
2023/04/01 03:29:00;;;;;;;0.30;0.20;;;;;;;12.16;65.22;94573.47;5133786;27;20785;-57
2023/04/01 03:31:28;;;;;;;0.40;0.30;;;;;;;12.15;65.20;94569.22;5133149;27;20470;-57
2023/04/01 03:33:57;;;;;;;0.40;0.30;;;;;;;11.74;67.49;94550.66;5133475;27;20435;-57
2023/04/01 03:36:25;;;;;;;0.40;0.23;;;;;;;11.25;69.22;94567.94;5132912;27;20523;-57
2023/04/01 03:38:54;;;;;;;0.30;0.20;;;;;;;10.99;71.30;94560.69;5132765;27;20435;-57
2023/04/01 03:41:22;;;;;;;0.77;0.77;;;;;;;10.76;72.04;94562.38;5132456;27;20509;-57
2023/04/01 03:43:50;;;;;;;0.40;0.30;;;;;;;10.67;73.62;94564.91;5123967;27;20981;-57
2023/04/01 03:46:21;;;;;;;0.60;0.40;;;;;;;10.20;75.41;94541.97;5128956;27;20519;-57
2023/04/01 03:48:49;;;;;;;0.50;0.40;;;;;;;10.13;78.62;94562.72;5132307;27;20439;-57
2023/04/01 03:51:17;;;;;;;0.40;0.30;;;;;;;10.03;79.58;94548.78;5132681;27;20442;-57
2023/04/01 03:53:45;;;;;;;0.40;0.30;;;;;;;9.94;79.94;94550.50;5133138;27;20435;-57
2023/04/01 03:56:14;;;;;;;0.30;0.20;;;;;;;9.68;79.83;94509.50;5132596;27;20438;-57
2023/04/01 03:58:42;;;;;;;0.30;0.30;;;;;;;10.27;77.83;94546.91;5132992;27;20870;-57
2023/04/01 04:01:20;;;;;;;0.40;0.30;;;;;;;9.45;81.38;94542.84;5132736;27;20437;-57
2023/04/01 04:03:51;;;;;;;0.60;0.40;;;;;;;9.37;83.54;94538.94;5132627;27;20483;-57
2023/04/01 04:06:20;;;;;;;0.30;0.20;;;;;;;9.74;82.58;94540.91;5106875;27;20481;-57
2023/04/01 04:08:48;;;;;;;0.67;0.60;;;;;;;10.01;81.30;94543.00;5132668;27;20427;-57
2023/04/01 04:11:17;;;;;;;0.30;0.20;;;;;;;10.35;78.53;94540.97;5133361;27;20501;-57
2023/04/01 04:13:47;;;;;;;0.40;0.30;;;;;;;10.53;77.26;94557.94;5132542;27;20535;-57
2023/04/01 04:16:16;;;;;;;0.40;0.30;;;;;;;10.62;76.54;94572.13;5132851;27;20458;-58
2023/04/01 04:18:45;;;;;;;0.30;0.20;;;;;;;10.86;74.69;94562.22;5132286;27;21016;-56
2023/04/01 04:21:16;;;;;;;0.30;0.20;;;;;;;10.81;73.79;94539.22;5132894;27;20530;-55
2023/04/01 04:23:44;;;;;;;0.67;0.67;;;;;;;10.71;75.18;94549.97;5132206;27;20495;-56
2023/04/01 04:26:15;;;;;;;0.40;0.40;;;;;;;10.31;76.53;94557.72;5132595;27;20475;-56
2023/04/01 04:28:43;;;;;;;0.40;0.37;;;;;;;10.70;74.57;94551.03;5132282;27;20491;-56
2023/04/01 04:31:12;;;;;;;0.30;0.23;;;;;;;10.81;73.95;94543.72;5132673;28;20458;-56
2023/04/01 04:33:40;;;;;;;0.80;0.80;;;;;;;10.84;73.32;94543.94;5131655;28;20917;-55
2023/04/01 04:36:09;;;;;;;0.60;0.57;;;;;;;10.79;73.80;94538.72;5132116;28;20529;-56
2023/04/01 04:38:39;;;;;;;0.30;0.20;;;;;;;10.89;73.55;94545.72;5131176;27;20970;-56
2023/04/01 04:41:11;;;;;;;0.70;0.37;;;;;;;11.02;72.55;94546.84;5132621;28;20531;-56
2023/04/01 04:43:40;;;;;;;0.40;0.40;;;;;;;10.92;73.61;94541.72;5106677;28;20490;-56
2023/04/01 04:46:09;;;;;;;0.60;0.60;;;;;;;11.07;72.85;94534.31;5132426;28;20562;-56
2023/04/01 04:48:37;;;;;;;1.83;1.00;;;;;;;10.87;74.13;94537.28;5132352;28;20461;-56
2023/04/01 04:51:06;;;;;;;0.30;0.20;;;;;;;11.05;73.13;94530.38;5131955;27;20441;-56
2023/04/01 04:53:34;;;;;;;0.67;0.67;;;;;;;11.04;73.14;94529.56;5136140;27;20533;-56
2023/04/01 04:56:04;;;;;;;0.73;0.67;;;;;;;10.86;74.73;94533.06;5135543;27;21016;-56
2023/04/01 04:58:33;;;;;;;0.40;0.40;;;;;;;10.38;76.17;94489.28;5136791;27;20445;-56
2023/04/01 05:01:07;;;;;;;2.10;0.50;;;;;;;10.55;76.41;94476.31;5136254;27;20907;-56
2023/04/01 05:03:35;;;;;;;0.40;0.30;;;;;;;11.22;74.82;94512.03;5136103;27;20435;-55
2023/04/01 05:06:04;;;;;;;0.50;0.50;;;;;;;11.31;73.12;94508.41;5136199;27;20470;-56
2023/04/01 05:08:32;;;;;;;0.40;0.40;;;;;;;11.53;71.93;94517.59;5135151;27;20522;-56
2023/04/01 05:11:01;;;;;;;1.03;0.40;;;;;;;11.37;73.03;94522.38;5136157;27;20811;-56
2023/04/01 05:13:30;;;;;;;0.87;0.87;;;;;;;10.98;74.14;94524.66;5136045;27;20433;-56
2023/04/01 05:15:59;;;;;;;1.23;0.40;;;;;;;10.89;76.57;94524.53;5135409;27;20523;-56
2023/04/01 05:18:27;;;;;;;1.50;0.20;;;;;;;11.15;74.14;94523.03;5135988;27;20489;-56
2023/04/01 05:20:56;;;;;;;0.30;0.20;;;;;;;11.21;72.86;94526.38;5132715;27;20558;-56
2023/04/01 05:23:24;;;;;;;0.40;0.40;;;;;;;11.63;71.60;94525.34;5129519;27;20468;-55
2023/04/01 05:25:53;;;;;;;0.40;0.30;;;;;;;11.56;70.84;94527.63;5135722;27;21017;-57
2023/04/01 05:28:21;;;;;;;1.80;1.53;;;;;;;11.02;73.32;94529.09;5135386;27;20435;-56
2023/04/01 05:30:51;;;;;;;26.33;2.93;;;;;;;10.66;76.23;94525.41;5135579;27;20439;-56
2023/04/01 05:33:19;;;;;;;2.60;2.30;;;;;;;10.63;77.24;94488.88;5135427;27;20442;-56
2023/04/01 05:35:48;;;;;;;2.77;2.57;;;;;;;10.58;77.62;94516.25;5135970;27;20525;-56
2023/04/01 05:38:16;;;;;;;0.40;0.40;;;;;;;10.80;77.29;94513.03;5135571;27;20462;-56
2023/04/01 05:40:44;;;;;;;0.43;0.30;;;;;;;11.29;74.15;94510.56;5135963;27;20435;-57
2023/04/01 05:43:13;;;;;;;0.40;0.30;;;;;;;11.63;72.22;94502.25;5135552;27;20517;-56
2023/04/01 05:45:41;;;;;;;0.50;0.30;;;;;;;11.78;71.62;94507.31;5135316;27;20438;-57
2023/04/01 05:48:11;;;;;;;0.60;0.50;;;;;;;11.57;70.67;94498.13;5134000;27;20478;-57
2023/04/01 05:50:41;;;;;;;0.50;0.40;;;;;;;11.31;72.36;94489.03;5134554;27;20439;-56
2023/04/01 05:53:09;;;;;;;0.57;0.57;;;;;;;11.35;70.93;94471.47;5134104;27;20431;-56
2023/04/01 05:55:38;;;;;;;0.40;0.30;;;;;;;11.44;70.49;94456.44;5134759;27;20488;-55
2023/04/01 05:58:06;;;;;;;0.30;0.20;;;;;;;11.77;68.54;94446.53;5134699;27;20438;-55
2023/04/01 06:00:34;;;;;;;0.40;0.40;;;;;;;11.85;68.55;94436.00;5134705;27;20435;-56
2023/04/01 06:03:05;;;;;;;0.63;0.63;;;;;;;11.18;67.88;94384.53;5107189;27;21009;-56
2023/04/01 06:05:41;;;;;;;0.50;0.37;;;;;;;11.26;69.14;94455.44;5134874;27;20439;-55
2023/04/01 06:08:13;;;;;;;0.30;0.30;;;;;;;11.42;68.59;94448.78;5134864;27;20480;-55
2023/04/01 06:10:56;;;;;;;0.40;0.30;;;;;;;11.64;68.58;94448.06;5134821;27;20454;-56
2023/04/01 06:13:39;;;;;;;0.60;0.60;;;;;;;12.48;66.29;94446.53;5133910;27;20479;-55
2023/04/01 06:16:17;;;;;;;0.60;0.60;;;;;;;13.01;64.26;94451.09;5135012;27;20965;-55
2023/04/01 06:19:18;;;;;;;0.77;0.77;;;;;;;12.77;63.35;94357.59;5134686;27;20435;-55
2023/04/01 06:22:06;;;;;;;0.40;0.30;;;;;;;14.02;60.14;94430.47;5131178;27;20470;-55
2023/04/01 06:24:54;;;;;;;0.30;0.30;;;;;;;14.24;58.87;94402.91;5124426;27;20553;-56
2023/04/01 06:27:37;;;;;;;0.50;0.50;;;;;;;14.65;57.69;94403.22;5108010;27;20573;-56
2023/04/01 06:30:20;;;;;;;0.50;0.50;;;;;;;14.74;57.24;94404.00;5134284;27;20435;-55
2023/04/01 06:33:02;;;;;;;0.57;0.37;;;;;;;15.63;55.23;94395.88;5134222;27;20503;-55
2023/04/01 06:35:58;;;;;;;1.00;0.70;;;;;;;15.77;54.24;94369.69;5134256;27;20962;-55
2023/04/01 06:38:46;;;;;;;0.80;0.50;;;;;;;16.11;53.70;94383.91;5134127;27;20788;-55
2023/04/01 06:41:57;;;;;;;0.60;0.60;;;;;;;16.45;54.20;94394.31;5133922;27;20504;-55
2023/04/01 06:44:36;;;;;;;1.00;0.83;;;;;;;16.15;53.11;94400.84;5095584;27;21054;-56
2023/04/01 06:47:19;;;;;;;2.83;1.13;;;;;;;16.70;53.51;94389.88;5133892;27;20489;-56
2023/04/01 06:49:57;;;;;;;2.67;1.27;;;;;;;16.78;52.64;94386.34;5133815;27;20450;-56
2023/04/01 06:52:33;;;;;;;1.43;1.33;;;;;;;15.66;54.25;94391.75;5134241;27;20942;-56
2023/04/01 06:55:14;;;;;;;1.30;1.20;;;;;;;15.84;54.91;94371.81;5134412;27;20522;-57
2023/04/01 06:57:46;;;;;;;2.17;1.50;;;;;;;16.38;54.07;94357.44;5122985;27;20491;-56
2023/04/01 07:00:19;;;;;;;0.60;0.50;;;;;;;16.55;53.16;94323.63;5134063;27;20843;-56
2023/04/01 07:02:55;;;;;;;0.70;0.70;;;;;;;16.59;52.76;94356.63;5133898;27;20435;-56
2023/04/01 07:05:24;;;;;;;0.50;0.40;;;;;;;16.09;54.00;94346.03;5134243;27;20438;-58
2023/04/01 07:07:58;;;;;;;0.50;0.30;;;;;;;16.02;53.03;94348.44;5133645;27;20525;-59
2023/04/01 07:10:36;;;;;;;0.57;0.50;;;;;;;16.63;52.36;94344.16;5133176;27;20443;-59
2023/04/01 07:13:09;;;;;;;0.40;0.30;;;;;;;16.36;51.61;94358.88;5132569;27;20971;-60
2023/04/01 07:15:41;;;;;;;0.50;0.30;;;;;;;17.55;49.86;94367.53;5131895;27;20947;-61
2023/04/01 07:18:16;;;;;;;0.30;0.20;;;;;;;17.82;48.10;94376.75;5133335;27;20474;-60
2023/04/01 07:20:46;;;;;;;0.40;0.30;;;;;;;18.14;48.09;94372.38;5133101;27;20931;-59
2023/04/01 07:23:22;;;;;;;0.60;0.60;;;;;;;18.04;49.00;94367.44;5133434;27;20562;-58
2023/04/01 07:25:59;;;;;;;0.40;0.30;;;;;;;17.84;46.94;94272.66;5107798;27;20438;-59
2023/04/01 07:28:33;;;;;;;0.80;0.80;;;;;;;17.31;49.29;94313.91;5132861;27;20462;-60
2023/04/01 07:31:15;;;;;;;0.57;0.57;;;;;;;17.08;50.37;94379.72;5133092;27;20470;-60
2023/04/01 07:33:51;;;;;;;0.50;0.50;;;;;;;17.15;49.84;94374.63;5133494;27;20439;-60
2023/04/01 07:36:28;;;;;;;0.40;0.30;;;;;;;17.93;48.56;94372.50;5132624;27;20505;-60
2023/04/01 07:39:05;;;;;;;0.40;0.30;;;;;;;17.96;48.06;94371.06;5132940;27;20942;-60
2023/04/01 07:41:48;;;;;;;0.80;0.50;;;;;;;18.01;48.03;94363.53;5133054;27;20464;-60
2023/04/01 07:44:25;;;;;;;2.03;2.00;;;;;;;17.61;51.19;94352.78;5133268;27;21003;-60
2023/04/01 07:47:03;;;;;;;1.10;1.03;;;;;;;18.40;47.57;94346.69;5133298;27;20441;-60
2023/04/01 07:49:41;;;;;;;0.30;0.20;;;;;;;18.79;47.17;94312.09;5132497;27;20521;-60
2023/04/01 07:52:19;;;;;;;0.67;0.67;;;;;;;18.79;48.29;94326.28;5133217;27;20434;-60
2023/04/01 07:54:52;;;;;;;0.60;0.60;;;;;;;17.75;48.66;94326.41;5118994;27;20526;-60
2023/04/01 07:57:28;;;;;;;0.50;0.47;;;;;;;18.58;48.39;94316.88;5132531;27;20475;-60
2023/04/01 08:00:02;;;;;;;0.60;0.40;;;;;;;17.78;50.38;94330.31;5108605;27;20445;-61
2023/04/01 08:02:45;;;;;;;0.50;0.50;;;;;;;17.22;51.11;94333.91;5132568;27;20446;-61
2023/04/01 08:05:23;;;;;;;1.80;0.87;;;;;;;17.27;51.64;94329.09;5132666;27;20453;-62
2023/04/01 08:08:01;;;;;;;0.40;0.30;;;;;;;18.11;51.05;94314.84;5132708;27;20470;-61
2023/04/01 08:10:38;;;;;;;0.40;0.30;;;;;;;17.22;49.73;94151.81;5132850;27;20825;-61
2023/04/01 08:13:17;;;;;;;0.53;0.53;;;;;;;18.35;49.85;94295.16;5132380;27;20526;-61
2023/04/01 08:15:51;;;;;;;0.50;0.30;;;;;;;18.94;49.21;94292.53;5132842;27;20439;-62
2023/04/01 08:18:31;;;;;;;0.40;0.30;;;;;;;19.95;46.92;94268.38;5119241;27;20477;-62
2023/04/01 08:21:02;;;;;;;5.23;0.70;;;;;;;20.07;46.56;94270.91;5108876;27;20954;-61
2023/04/01 08:23:34;;;;;;;1.13;0.40;;;;;;;19.13;46.75;94217.41;5132037;27;20858;-62
2023/04/01 08:26:07;;;;;;;0.50;0.40;;;;;;;18.76;48.22;94232.25;5131900;27;20943;-63
2023/04/01 08:28:42;;;;;;;0.40;0.30;;;;;;;18.78;48.30;94251.47;5131792;27;20496;-63
2023/04/01 08:31:15;;;;;;;0.50;0.40;;;;;;;19.33;50.14;94247.78;5132708;27;20525;-64
2023/04/01 08:33:47;;;;;;;0.40;0.30;;;;;;;19.76;47.24;94222.66;5132164;28;20443;-64
2023/04/01 08:36:18;;;;;;;0.50;0.40;;;;;;;19.31;48.41;94248.13;5132483;27;20435;-63
2023/04/01 08:38:52;;;;;;;0.50;0.43;;;;;;;19.46;47.39;94241.19;5132554;28;20474;-65
2023/04/01 08:41:40;;;;;;;2.20;0.40;;;;;;;19.74;47.19;94219.50;5131930;27;20438;-65
2023/04/01 08:44:34;;;;;;;0.50;0.40;;;;;;;19.10;47.42;94228.81;5132892;27;20530;-67
2023/04/01 08:47:25;;;;;;;0.50;0.50;;;;;;;19.77;46.89;94213.44;5132685;28;20521;-66
2023/04/01 08:50:20;;;;;;;0.43;0.43;;;;;;;20.46;46.38;94225.94;5132014;28;20983;-66
2023/04/01 08:52:54;;;;;;;0.50;0.40;;;;;;;19.72;46.06;94184.94;5132119;28;20442;-65
2023/04/01 08:55:37;;;;;;;0.60;0.40;;;;;;;19.75;45.99;94192.28;5132443;28;20439;-65
2023/04/01 08:58:22;;;;;;;0.50;0.30;;;;;;;20.65;45.74;94186.28;5132133;28;20443;-66
2023/04/01 09:00:56;;;;;;;0.40;0.23;;;;;;;20.88;44.78;94172.81;5131835;28;20958;-64
2023/04/01 09:03:42;;;;;;;0.47;0.40;;;;;;;20.30;45.01;94179.50;5135849;28;20502;-64
2023/04/01 09:06:39;;;;;;;0.40;0.30;;;;;;;20.96;45.74;94162.91;5131759;28;20923;-65
2023/04/01 09:09:37;;;;;;;0.40;0.40;;;;;;;20.34;46.83;94162.28;5102201;28;20896;-67
2023/04/01 09:12:45;;;;;;;0.63;0.50;;;;;;;20.73;44.99;94168.34;5131851;28;20525;-65
2023/04/01 09:15:28;;;;;;;0.80;0.63;;;;;;;21.28;43.66;94116.47;5131145;27;20931;-66
2023/04/01 09:18:28;;;;;;;0.50;0.50;;;;;;;21.85;43.46;94074.00;5131471;27;20972;-63
2023/04/01 09:21:17;;;;;;;0.40;0.30;;;;;;;22.67;42.46;94087.09;5131260;28;20435;-63
2023/04/01 09:24:14;;;;;;;0.60;0.50;;;;;;;23.54;40.96;94144.81;5130416;28;20577;-62
2023/04/01 09:27:03;;;;;;;0.40;0.30;;;;;;;23.67;40.84;94133.31;5125127;27;20526;-62
2023/04/01 09:30:04;;;;;;;0.40;0.30;;;;;;;24.06;40.69;94140.78;5131314;28;21063;-61
2023/04/01 09:32:50;;;;;;;0.50;0.40;;;;;;;24.18;41.19;94130.41;5095682;28;20442;-61
2023/04/01 09:35:25;;;;;;;0.87;0.60;;;;;;;23.90;41.39;94095.91;5117935;27;20439;-58
2023/04/01 09:37:58;;;;;;;0.40;0.30;;;;;;;24.54;39.26;94112.28;5131625;27;20442;-60
2023/04/01 09:40:38;;;;;;;0.50;0.40;;;;;;;24.42;39.98;94120.75;5109970;27;20951;-59
2023/04/01 09:43:26;;;;;;;0.50;0.33;;;;;;;24.27;39.98;94108.34;5135710;27;20541;-59
2023/04/01 09:46:13;;;;;;;0.30;0.20;;;;;;;25.27;38.85;94047.53;5135171;27;20914;-58
2023/04/01 09:49:13;;;;;;;0.30;0.30;;;;;;;26.41;36.87;94084.63;5112665;27;20473;-58
2023/04/01 09:51:56;;;;;;;0.70;0.70;;;;;;;26.33;36.50;94074.97;5128607;27;20436;-59
2023/04/01 09:54:42;;;;;;;0.40;0.30;;;;;;;26.19;35.29;94070.41;5131498;27;20442;-59
2023/04/01 09:57:34;;;;;;;1.57;0.50;;;;;;;24.50;37.15;94077.06;5135569;27;20435;-60
2023/04/01 10:00:36;;;;;;;0.43;0.40;;;;;;;24.37;38.52;94069.69;5113592;27;20946;-60
2023/04/01 10:03:56;;;;;;;0.70;0.50;;;;;;;24.12;38.30;94063.47;5135458;27;20481;-62
2023/04/01 10:06:58;;;;;;;0.50;0.37;;;;;;;24.83;38.77;94067.78;5111064;27;20958;-61
2023/04/01 10:10:09;;;;;;;0.40;0.30;;;;;;;25.49;37.66;94059.88;5119675;27;21032;-61
2023/04/01 10:13:25;;;;;;;0.60;0.37;;;;;;;24.83;37.13;94061.56;5135091;27;20478;-61
2023/04/01 10:16:11;;;;;;;0.87;0.87;;;;;;;25.26;37.22;94038.63;5134688;27;20518;-61
2023/04/01 10:19:28;;;;;;;0.37;0.30;;;;;;;25.27;36.32;94043.66;5134901;27;20431;-60
2023/04/01 10:22:38;;;;;;;1.27;0.30;;;;;;;26.29;36.55;94017.94;5080314;27;20493;-60
2023/04/01 10:25:20;;;;;;;0.37;0.37;;;;;;;26.89;34.56;93984.81;5086154;27;20462;-59
2023/04/01 10:28:15;;;;;;;0.50;0.30;;;;;;;27.90;32.82;94010.44;5134060;27;20478;-60
2023/04/01 10:31:05;;;;;;;1.53;0.40;;;;;;;27.41;32.00;94018.06;5109762;27;20443;-59
2023/04/01 10:34:07;;;;;;;0.93;0.93;;;;;;;26.36;33.66;94012.44;5134166;27;20863;-58
2023/04/01 10:36:53;;;;;;;0.87;0.37;;;;;;;27.27;33.20;93998.41;5134447;27;20430;-56
2023/04/01 10:39:38;;;;;;;0.60;0.60;;;;;;;28.17;30.95;93959.47;5134591;27;20467;-56
2023/04/01 10:42:39;;;;;;;0.40;0.30;;;;;;;28.77;30.50;93980.28;5109311;27;20439;-56
2023/04/01 10:45:39;;;;;;;2.63;0.50;;;;;;;28.34;31.52;93970.06;5134030;27;20458;-56
2023/04/01 10:48:24;;;;;;;0.40;0.30;;;;;;;30.04;28.86;93962.13;5134286;27;20856;-56
2023/04/01 10:51:11;;;;;;;0.40;0.30;;;;;;;28.73;30.05;93953.09;5134017;27;20947;-56
2023/04/01 10:54:23;;;;;;;0.53;0.40;;;;;;;29.33;31.54;93943.75;5112384;27;20462;-56
2023/04/01 10:57:02;;;;;;;1.57;0.37;;;;;;;29.93;29.80;93923.34;5050157;28;21009;-56
2023/04/01 11:00:07;;;;;;;0.40;0.37;;;;;;;30.70;29.14;93941.78;5050557;28;20453;-56
2023/04/01 11:03:04;;;;;;;2.00;1.27;;;;;;;29.79;28.48;93945.53;5121028;27;20513;-56
2023/04/01 11:06:12;;;;;;;1.13;0.53;;;;;;;29.93;28.48;93955.38;5133678;27;20442;-56
2023/04/01 11:09:25;;;;;;;0.50;0.30;;;;;;;28.32;29.12;93966.22;5133489;27;20525;-57
2023/04/01 11:12:33;;;;;;;0.50;0.50;;;;;;;29.11;27.99;93952.75;5116179;27;20468;-56
2023/04/01 11:15:38;;;;;;;0.50;0.30;;;;;;;31.55;25.77;93926.53;5116672;27;20958;-56
2023/04/01 11:18:39;;;;;;;0.50;0.30;;;;;;;30.62;25.60;93932.22;5132474;27;20446;-56
2023/04/01 11:21:48;;;;;;;0.43;0.43;;;;;;;30.37;25.95;93930.13;5104791;27;20453;-56
2023/04/01 11:24:39;;;;;;;0.60;0.57;;;;;;;29.01;27.02;93886.31;5132978;27;20461;-58
2023/04/01 11:27:22;;;;;;;0.37;0.30;;;;;;;30.57;26.45;93894.44;5133187;27;20434;-57
2023/04/01 11:30:04;;;;;;;2.83;2.03;;;;;;;30.14;26.75;93884.59;5132720;27;20542;-58
2023/04/01 11:32:55;;;;;;;0.40;0.30;;;;;;;30.11;26.30;93917.44;5133687;27;20597;-57
2023/04/01 11:35:51;;;;;;;0.60;0.33;;;;;;;28.38;26.44;93931.88;5122442;27;20446;-58
2023/04/01 11:38:32;;;;;;;0.50;0.30;;;;;;;28.38;26.88;93918.25;5133012;27;20809;-58
2023/04/01 11:41:14;;;;;;;2.37;0.43;;;;;;;27.90;27.05;93906.97;5133362;27;20466;-58
2023/04/01 11:43:51;;;;;;;0.40;0.30;;;;;;;28.10;27.35;93886.03;5108167;27;20434;-58
2023/04/01 11:46:28;;;;;;;0.93;0.30;;;;;;;28.49;27.00;93897.00;5133313;27;20522;-58
2023/04/01 11:49:08;;;;;;;4.67;0.37;;;;;;;27.85;28.78;93912.88;5133066;27;20442;-58
2023/04/01 11:51:55;;;;;;;0.40;0.30;;;;;;;28.03;28.57;93895.06;5132833;27;20521;-58
2023/04/01 11:54:42;;;;;;;0.40;0.30;;;;;;;28.40;28.12;93847.75;5132495;27;20445;-58
2023/04/01 11:57:31;;;;;;;3.90;0.70;;;;;;;28.26;28.66;93891.56;5133015;27;20434;-58
2023/04/01 12:00:13;;;;;;;2.63;0.70;;;;;;;27.71;29.61;93867.56;5132814;27;20449;-58
2023/04/01 12:02:59;;;;;;;0.40;0.30;;;;;;;28.13;28.27;93860.69;5118341;27;20509;-58
2023/04/01 12:05:44;;;;;;;0.60;0.30;;;;;;;29.25;27.22;93859.72;5132188;27;20445;-58
2023/04/01 12:08:24;;;;;;;0.30;0.20;;;;;;;28.15;27.97;93853.66;5132445;27;20446;-58
2023/04/01 12:11:02;;;;;;;0.40;0.37;;;;;;;28.99;26.80;93855.19;5131940;27;20575;-59
2023/04/01 12:13:44;;;;;;;0.50;0.50;;;;;;;29.74;26.80;93850.41;5132630;27;20476;-59
2023/04/01 12:16:31;;;;;;;0.50;0.40;;;;;;;29.96;26.47;93856.16;5108813;27;20446;-59
2023/04/01 12:19:11;;;;;;;0.50;0.40;;;;;;;30.51;26.97;93860.66;5131821;27;20439;-59
2023/04/01 12:21:49;;;;;;;0.40;0.40;;;;;;;30.82;26.11;93872.66;5132192;27;20472;-58
2023/04/01 12:24:47;;;;;;;1.50;0.40;;;;;;;29.68;27.08;93860.28;5108264;27;20476;-59